createdAt,value
2024-04-12T00:01:51.553Z,1.98
2024-04-12T00:04:20.593Z,2.00
2024-04-12T00:06:49.404Z,1.92
2024-04-12T00:09:16.596Z,1.80
2024-04-12T00:11:43.784Z,1.60
2024-04-12T00:14:10.958Z,1.92
2024-04-12T00:16:38.053Z,1.70
2024-04-12T00:19:05.356Z,1.63
2024-04-12T00:21:32.465Z,1.85
2024-04-12T00:23:59.581Z,1.92
2024-04-12T00:26:26.730Z,2.10
2024-04-12T00:28:53.817Z,2.00
2024-04-12T00:31:20.919Z,1.67
2024-04-12T00:33:48.099Z,1.60
2024-04-12T00:36:15.273Z,1.52
2024-04-12T00:38:43.401Z,1.80
2024-04-12T00:41:14.402Z,1.65
2024-04-12T00:43:45.333Z,1.80
2024-04-12T00:46:36.111Z,1.90
2024-04-12T00:49:03.525Z,1.65
2024-04-12T00:51:30.997Z,1.85
2024-04-12T00:54:00.506Z,1.70
2024-04-12T00:56:28.746Z,1.70
2024-04-12T00:58:58.924Z,1.67
2024-04-12T01:01:26.933Z,1.27
2024-04-12T01:03:55.127Z,1.70
2024-04-12T01:06:24.419Z,1.60
2024-04-12T01:09:02.363Z,1.50
2024-04-12T01:11:29.504Z,1.48
2024-04-12T01:13:56.614Z,1.58
2024-04-12T01:16:23.747Z,1.50
2024-04-12T01:18:51.736Z,1.55
2024-04-12T01:21:19.032Z,1.55
2024-04-12T01:23:46.883Z,1.98
2024-04-12T01:26:15.420Z,1.70
2024-04-12T01:28:43.577Z,1.88
2024-04-12T01:31:11.888Z,1.83
2024-04-12T01:33:40.328Z,2.10
2024-04-12T01:36:07.859Z,2.03
2024-04-12T01:38:35.054Z,2.30
2024-04-12T01:41:02.189Z,2.55
2024-04-12T01:43:30.178Z,2.20
2024-04-12T01:45:57.640Z,2.92
2024-04-12T01:48:25.283Z,2.63
2024-04-12T01:50:52.696Z,2.63
2024-04-12T01:53:19.951Z,2.55
2024-04-12T01:55:47.032Z,2.88
2024-04-12T01:58:14.139Z,2.88
2024-04-12T02:00:41.283Z,2.53
2024-04-12T02:03:08.550Z,3.00
2024-04-12T02:05:35.940Z,2.63
2024-04-12T02:08:04.882Z,3.08
2024-04-12T02:10:31.996Z,3.00
2024-04-12T02:12:59.097Z,2.88
2024-04-12T02:15:26.247Z,2.92
2024-04-12T02:17:53.911Z,3.30
2024-04-12T02:20:21.885Z,3.13
2024-04-12T02:22:49.024Z,3.03
2024-04-12T02:25:16.203Z,3.45
2024-04-12T02:27:43.293Z,2.90
2024-04-12T02:30:10.599Z,3.60
2024-04-12T02:32:37.913Z,4.05
2024-04-12T02:35:05.259Z,3.30
2024-04-12T02:37:32.371Z,3.70
2024-04-12T02:39:59.483Z,4.18
2024-04-12T02:42:26.595Z,4.35
2024-04-12T02:44:53.698Z,3.50
2024-04-12T02:47:20.823Z,3.50
2024-04-12T02:49:48.048Z,3.75
2024-04-12T02:52:15.203Z,3.45
2024-04-12T02:54:42.283Z,3.22
2024-04-12T02:57:09.485Z,3.15
2024-04-12T02:59:36.710Z,3.42
2024-04-12T03:02:03.903Z,3.53
2024-04-12T03:04:31.041Z,3.22
2024-04-12T03:06:58.147Z,3.30
2024-04-12T03:09:25.244Z,3.65
2024-04-12T03:11:52.369Z,2.95
2024-04-12T03:14:19.520Z,3.80
2024-04-12T03:16:46.718Z,3.60
2024-04-12T03:19:14.484Z,4.07
2024-04-12T03:21:42.276Z,3.63
2024-04-12T03:24:10.308Z,3.95
2024-04-12T03:26:38.232Z,3.85
2024-04-12T03:29:05.479Z,4.20
2024-04-12T03:31:36.710Z,4.32
2024-04-12T03:34:03.823Z,3.53
2024-04-12T03:36:30.944Z,4.55
2024-04-12T03:38:59.742Z,3.92
2024-04-12T03:41:26.912Z,4.60
2024-04-12T03:43:54.025Z,3.67
2024-04-12T03:46:21.120Z,3.65
2024-04-12T03:48:48.411Z,3.97
2024-04-12T03:51:15.673Z,4.00
2024-04-12T03:53:42.878Z,4.18
2024-04-12T03:56:10.000Z,4.30
2024-04-12T03:58:37.159Z,4.28
2024-04-12T04:01:04.517Z,4.72
2024-04-12T04:03:31.736Z,4.63
2024-04-12T04:06:02.228Z,4.63
2024-04-12T04:08:29.348Z,4.57
2024-04-12T04:10:56.479Z,4.40
2024-04-12T04:13:23.716Z,4.60
2024-04-12T04:15:50.835Z,4.07
2024-04-12T04:18:18.973Z,3.38
2024-04-12T04:20:46.336Z,4.35
2024-04-12T04:23:13.446Z,4.70
2024-04-12T04:25:40.552Z,4.53
2024-04-12T04:28:07.660Z,4.70
2024-04-12T04:30:34.771Z,4.32
2024-04-12T04:33:01.929Z,3.70
2024-04-12T04:35:29.163Z,4.55
2024-04-12T04:37:56.311Z,4.32
2024-04-12T04:40:23.454Z,4.25
2024-04-12T04:42:50.586Z,3.63
2024-04-12T04:45:17.978Z,4.20
2024-04-12T04:47:48.298Z,4.05
2024-04-12T04:50:16.082Z,2.92
2024-04-12T04:52:43.225Z,4.15
2024-04-12T04:55:10.382Z,3.55
2024-04-12T04:57:37.503Z,3.20
2024-04-12T05:00:05.425Z,3.38
2024-04-12T05:02:32.916Z,3.67
2024-04-12T05:05:00.036Z,4.10
2024-04-12T05:07:27.137Z,3.53
2024-04-12T05:09:54.237Z,3.67
2024-04-12T05:12:21.429Z,3.00
2024-04-12T05:14:48.628Z,3.58
2024-04-12T05:17:15.803Z,3.15
2024-04-12T05:19:43.273Z,3.22
2024-04-12T05:22:14.385Z,2.97
2024-04-12T05:24:42.367Z,3.30
2024-04-12T05:27:10.207Z,2.70
2024-04-12T05:29:37.433Z,2.45
2024-04-12T05:32:05.119Z,2.47
2024-04-12T05:34:32.270Z,2.67
2024-04-12T05:36:59.494Z,2.58
2024-04-12T05:39:27.792Z,2.33
2024-04-12T05:41:55.090Z,2.20
2024-04-12T05:44:22.250Z,2.08
2024-04-12T05:46:49.530Z,2.40
2024-04-12T05:49:16.773Z,2.15
2024-04-12T05:51:43.892Z,2.80
2024-04-12T05:54:11.515Z,2.58
2024-04-12T05:56:40.429Z,2.42
2024-04-12T05:59:10.461Z,2.40
2024-04-12T06:01:37.848Z,2.20
2024-04-12T06:04:05.116Z,2.28
2024-04-12T06:06:32.292Z,2.28
2024-04-12T06:08:59.543Z,1.98
2024-04-12T06:11:26.963Z,2.60
2024-04-12T06:13:54.243Z,2.50
2024-04-12T06:16:21.695Z,2.55
2024-04-12T06:18:48.838Z,2.17
2024-04-12T06:21:15.977Z,2.55
2024-04-12T06:23:43.130Z,2.55
2024-04-12T06:26:10.292Z,2.75
2024-04-12T06:28:37.438Z,2.67
2024-04-12T06:31:04.647Z,2.45
2024-04-12T06:33:31.886Z,2.58
2024-04-12T06:35:59.085Z,2.47
2024-04-12T06:38:26.213Z,3.00
2024-04-12T06:40:54.355Z,2.20
2024-04-12T06:43:21.967Z,2.22
2024-04-12T06:46:02.536Z,2.60
2024-04-12T06:48:29.752Z,2.50
2024-04-12T06:50:58.435Z,3.22
2024-04-12T06:53:25.609Z,2.55
2024-04-12T06:56:01.054Z,2.60
2024-04-12T06:58:28.189Z,3.08
2024-04-12T07:01:04.464Z,2.35
2024-04-12T07:03:31.657Z,2.53
2024-04-12T07:05:58.928Z,2.70
2024-04-12T07:08:26.066Z,2.28
2024-04-12T07:10:53.204Z,3.20
2024-04-12T07:13:23.033Z,2.47
2024-04-12T07:15:50.160Z,2.45
2024-04-12T07:18:20.348Z,2.72
2024-04-12T07:20:47.490Z,2.55
2024-04-12T07:23:14.940Z,2.42
2024-04-12T07:25:42.072Z,2.55
2024-04-12T07:28:09.189Z,2.45
2024-04-12T07:30:36.322Z,2.63
2024-04-12T07:33:03.657Z,2.60
2024-04-12T07:35:30.878Z,3.15
2024-04-12T07:38:00.486Z,3.13
2024-04-12T07:40:30.677Z,2.53
2024-04-12T07:42:57.795Z,2.60
2024-04-12T07:45:26.239Z,2.92
2024-04-12T07:47:57.431Z,2.50
2024-04-12T07:50:31.506Z,2.85
2024-04-12T07:53:03.681Z,2.35
2024-04-12T07:55:30.812Z,3.00
2024-04-12T07:57:57.924Z,2.35
2024-04-12T08:00:25.526Z,2.22
2024-04-12T08:02:52.707Z,2.45
2024-04-12T08:05:19.845Z,3.03
2024-04-12T08:07:47.018Z,2.30
2024-04-12T08:10:14.133Z,2.25
2024-04-12T08:12:41.229Z,2.10
2024-04-12T08:15:08.834Z,1.90
2024-04-12T08:17:36.142Z,1.88
2024-04-12T08:20:03.314Z,2.22
2024-04-12T08:22:30.487Z,2.10
2024-04-12T08:24:57.670Z,2.28
2024-04-12T08:27:26.085Z,1.67
2024-04-12T08:29:54.496Z,2.35
2024-04-12T08:32:22.112Z,2.47
2024-04-12T08:34:49.240Z,2.10
2024-04-12T08:37:18.114Z,2.40
2024-04-12T08:39:46.551Z,2.80
2024-04-12T08:42:15.974Z,2.70
2024-04-12T08:44:45.219Z,2.30
2024-04-12T08:47:13.376Z,2.10
2024-04-12T08:49:42.655Z,2.20
2024-04-12T08:52:09.828Z,2.33
2024-04-12T08:54:37.589Z,1.98
2024-04-12T08:57:05.025Z,2.85
2024-04-12T08:59:32.222Z,2.10
2024-04-12T09:01:59.685Z,2.00
2024-04-12T09:04:29.433Z,2.00
2024-04-12T09:06:56.619Z,1.88
2024-04-12T09:09:23.837Z,1.55
2024-04-12T09:11:51.683Z,1.60
2024-04-12T09:14:18.876Z,1.48
2024-04-12T09:16:45.981Z,1.80
2024-04-12T09:19:13.224Z,1.65
2024-04-12T09:21:40.663Z,1.63
2024-04-12T09:24:08.021Z,1.90
2024-04-12T09:26:35.727Z,1.23
2024-04-12T09:29:03.078Z,1.30
2024-04-12T09:31:31.889Z,1.33
2024-04-12T09:34:00.343Z,1.13
2024-04-12T09:36:49.476Z,1.40
2024-04-12T09:39:16.998Z,1.05
2024-04-12T09:41:45.863Z,1.73
2024-04-12T09:44:13.060Z,1.38
2024-04-12T09:46:40.199Z,1.67
2024-04-12T09:49:07.718Z,1.13
2024-04-12T09:51:35.003Z,1.08
2024-04-12T09:54:02.210Z,1.40
2024-04-12T09:56:35.007Z,1.30
2024-04-12T09:59:06.650Z,1.35
2024-04-12T10:01:36.698Z,1.20
2024-04-12T10:04:04.235Z,1.20
2024-04-12T10:06:40.498Z,1.40
2024-04-12T10:09:08.684Z,1.05
2024-04-12T10:11:37.173Z,1.30
2024-04-12T10:14:05.129Z,1.38
2024-04-12T10:16:43.747Z,1.20
2024-04-12T10:19:11.823Z,1.20
2024-04-12T10:21:41.116Z,1.10
2024-04-12T10:24:08.718Z,1.33
2024-04-12T10:26:39.804Z,1.10
2024-04-12T10:29:07.198Z,1.13
2024-04-12T10:31:38.322Z,1.40
2024-04-12T10:34:09.126Z,1.42
2024-04-12T10:36:36.661Z,1.02
2024-04-12T10:39:04.036Z,1.00
2024-04-12T10:41:31.175Z,1.10
2024-04-12T10:43:58.295Z,1.20
2024-04-12T10:46:25.417Z,1.00
2024-04-12T10:48:52.628Z,1.35
2024-04-12T10:51:21.374Z,1.20
2024-04-12T10:53:52.576Z,1.83
2024-04-12T10:56:19.795Z,1.00
2024-04-12T10:58:47.789Z,1.10
2024-04-12T11:01:15.735Z,1.10
2024-04-12T11:03:42.890Z,0.80
2024-04-12T11:06:10.055Z,1.27
2024-04-12T11:08:37.607Z,0.70
2024-04-12T11:11:04.993Z,0.80
2024-04-12T11:13:32.220Z,0.70
2024-04-12T11:16:00.543Z,0.95
2024-04-12T11:18:27.872Z,0.82
2024-04-12T11:20:58.769Z,1.10
2024-04-12T11:23:25.935Z,1.40
2024-04-12T11:25:53.399Z,0.80
2024-04-12T11:28:20.626Z,0.80
2024-04-12T11:30:47.817Z,1.20
2024-04-12T11:33:21.799Z,1.00
2024-04-12T11:35:51.456Z,0.90
2024-04-12T11:38:18.663Z,0.70
2024-04-12T11:40:45.831Z,0.93
2024-04-12T11:43:12.981Z,0.80
2024-04-12T11:45:43.353Z,1.80
2024-04-12T11:48:10.987Z,0.98
2024-04-12T11:50:38.169Z,0.80
2024-04-12T11:53:05.351Z,0.98
2024-04-12T11:55:32.474Z,1.08
2024-04-12T11:57:59.586Z,0.90
2024-04-12T12:00:26.745Z,1.10
2024-04-12T12:02:53.993Z,1.10
2024-04-12T12:05:21.288Z,0.90
2024-04-12T12:07:48.434Z,1.60
2024-04-12T12:10:16.414Z,1.02
2024-04-12T12:12:44.233Z,1.10
2024-04-12T12:15:11.972Z,1.20
2024-04-12T12:17:39.452Z,1.00
2024-04-12T12:20:07.807Z,1.15
2024-04-12T12:22:34.996Z,1.05
2024-04-12T12:25:05.533Z,1.15
2024-04-12T12:27:34.701Z,1.10
2024-04-12T12:30:02.149Z,1.10
2024-04-12T12:32:29.389Z,0.98
2024-04-12T12:34:56.735Z,1.60
2024-04-12T12:37:24.717Z,1.13
2024-04-12T12:39:51.870Z,1.00
2024-04-12T12:42:19.078Z,1.05
2024-04-12T12:44:46.336Z,1.65
2024-04-12T12:47:13.615Z,1.77
2024-04-12T12:49:40.756Z,1.00
2024-04-12T12:52:12.685Z,1.30
2024-04-12T12:54:44.480Z,1.10
2024-04-12T12:57:15.104Z,1.13
2024-04-12T12:59:43.456Z,1.08
2024-04-12T13:02:11.480Z,1.02
2024-04-12T13:04:38.639Z,1.20
2024-04-12T13:07:05.765Z,1.85
2024-04-12T13:09:32.904Z,1.40
2024-04-12T13:12:00.085Z,1.35
2024-04-12T13:14:27.221Z,1.40
2024-04-12T13:16:54.393Z,1.77
2024-04-12T13:19:21.796Z,2.13
2024-04-12T13:21:49.394Z,1.67
2024-04-12T13:24:16.761Z,2.33
2024-04-12T13:26:43.961Z,1.75
2024-04-12T13:29:11.086Z,1.90
2024-04-12T13:31:38.204Z,2.05
2024-04-12T13:34:05.470Z,1.73
2024-04-12T13:36:32.772Z,1.70
2024-04-12T13:38:59.952Z,1.85
2024-04-12T13:41:27.096Z,2.42
2024-04-12T13:43:54.194Z,2.30
2024-04-12T13:46:21.419Z,2.10
2024-04-12T13:48:48.661Z,2.30
2024-04-12T13:51:16.794Z,2.70
2024-04-12T13:53:44.425Z,1.85
2024-04-12T13:56:12.515Z,2.10
2024-04-12T13:58:39.663Z,1.73
2024-04-12T14:01:09.658Z,2.40
2024-04-12T14:03:37.035Z,1.77
2024-04-12T14:06:04.434Z,1.73
2024-04-12T14:08:31.621Z,2.30
2024-04-12T14:10:58.800Z,2.40
2024-04-12T14:13:25.943Z,2.80
2024-04-12T14:15:53.581Z,2.47
2024-04-12T14:18:20.777Z,2.17
2024-04-12T14:20:47.911Z,2.63
2024-04-12T14:23:15.014Z,2.22
2024-04-12T14:25:42.211Z,2.35
2024-04-12T14:28:09.331Z,2.10
2024-04-12T14:30:36.441Z,2.08
2024-04-12T14:33:03.716Z,2.10
2024-04-12T14:35:30.892Z,2.05
2024-04-12T14:37:58.008Z,2.08
2024-04-12T14:40:25.190Z,2.33
2024-04-12T14:42:52.929Z,1.90
2024-04-12T14:45:20.210Z,2.20
2024-04-12T14:47:58.926Z,2.60
2024-04-12T14:50:30.611Z,2.33
2024-04-12T14:52:57.781Z,2.38
2024-04-12T14:55:24.914Z,2.65
2024-04-12T14:57:52.091Z,2.47
2024-04-12T15:00:21.352Z,2.42
2024-04-12T15:02:49.010Z,2.65
2024-04-12T15:05:16.428Z,2.53
2024-04-12T15:07:43.570Z,2.45
2024-04-12T15:10:10.692Z,2.53
2024-04-12T15:12:37.830Z,2.67
2024-04-12T15:15:07.081Z,2.33
2024-04-12T15:17:34.280Z,2.75
2024-04-12T15:20:01.455Z,2.53
2024-04-12T15:22:28.666Z,2.30
2024-04-12T15:24:55.811Z,2.70
2024-04-12T15:27:22.989Z,2.53
2024-04-12T15:29:50.175Z,2.55
2024-04-12T15:32:17.305Z,2.58
2024-04-12T15:34:44.418Z,2.20
2024-04-12T15:37:11.527Z,2.55
2024-04-12T15:39:38.629Z,2.70
2024-04-12T15:42:06.007Z,2.20
2024-04-12T15:44:33.173Z,2.47
2024-04-12T15:47:00.430Z,2.20
2024-04-12T15:49:27.626Z,2.85
2024-04-12T15:51:54.758Z,2.53
2024-04-12T15:54:22.851Z,2.35
2024-04-12T15:56:51.127Z,2.28
2024-04-12T15:59:18.265Z,2.63
2024-04-12T16:01:45.395Z,2.60
2024-04-12T16:04:12.774Z,2.25
2024-04-12T16:06:40.003Z,2.45
2024-04-12T16:09:08.327Z,2.30
2024-04-12T16:11:36.314Z,2.53
2024-04-12T16:14:03.450Z,2.58
2024-04-12T16:16:30.587Z,2.72
2024-04-12T16:18:57.832Z,2.88
2024-04-12T16:21:25.040Z,2.90
2024-04-12T16:23:52.219Z,2.50
2024-04-12T16:26:19.318Z,2.25
2024-04-12T16:28:46.469Z,2.67
2024-04-12T16:31:13.586Z,2.58
2024-04-12T16:33:40.841Z,2.30
2024-04-12T16:36:08.644Z,2.40
2024-04-12T16:38:35.808Z,2.78
2024-04-12T16:41:04.266Z,2.63
2024-04-12T16:43:31.495Z,2.75
2024-04-12T16:45:58.635Z,2.25
2024-04-12T16:48:25.869Z,2.67
2024-04-12T16:50:53.121Z,2.90
2024-04-12T16:53:20.255Z,2.35
2024-04-12T16:55:47.397Z,2.55
2024-04-12T16:58:14.516Z,2.45
2024-04-12T17:00:41.670Z,2.60
2024-04-12T17:03:08.905Z,2.10
2024-04-12T17:05:36.110Z,2.20
2024-04-12T17:08:03.221Z,2.47
2024-04-12T17:10:30.417Z,2.33
2024-04-12T17:12:57.568Z,2.30
2024-04-12T17:15:26.076Z,2.08
2024-04-12T17:17:53.507Z,2.30
2024-04-12T17:20:20.831Z,2.30
2024-04-12T17:22:47.991Z,2.47
2024-04-12T17:25:17.811Z,2.45
2024-04-12T17:27:46.541Z,2.40
2024-04-12T17:30:13.690Z,2.20
2024-04-12T17:32:41.115Z,2.22
2024-04-12T17:35:08.528Z,2.22
2024-04-12T17:37:35.640Z,2.78
2024-04-12T17:40:07.108Z,2.22
2024-04-12T17:42:34.406Z,2.28
2024-04-12T17:45:01.620Z,2.58
2024-04-12T17:47:28.812Z,2.50
2024-04-12T17:49:55.970Z,2.15
2024-04-12T17:52:23.752Z,2.42
2024-04-12T17:54:51.773Z,2.35
2024-04-12T17:57:18.939Z,2.63
2024-04-12T17:59:46.114Z,3.10
2024-04-12T18:02:13.637Z,2.70
2024-04-12T18:04:40.888Z,2.20
2024-04-12T18:07:08.037Z,2.97
2024-04-12T18:09:35.379Z,2.40
2024-04-12T18:12:02.626Z,2.95
2024-04-12T18:14:29.853Z,2.47
2024-04-12T18:16:57.032Z,2.53
2024-04-12T18:19:24.180Z,2.70
2024-04-12T18:21:51.283Z,2.88
2024-04-12T18:24:18.406Z,2.70
2024-04-12T18:26:45.537Z,2.88
2024-04-12T18:29:12.644Z,3.03
2024-04-12T18:31:39.774Z,2.80
2024-04-12T18:34:06.942Z,2.58
2024-04-12T18:36:34.916Z,2.22
2024-04-12T18:39:02.871Z,2.80
2024-04-12T18:41:30.094Z,2.78
2024-04-12T18:43:57.244Z,3.95
2024-04-12T18:46:24.540Z,2.55
2024-04-12T18:48:51.846Z,3.17
2024-04-12T18:51:19.375Z,3.30
2024-04-12T18:53:46.589Z,3.00
2024-04-12T18:56:14.823Z,2.67
2024-04-12T18:58:42.570Z,3.33
2024-04-12T19:01:09.734Z,3.10
2024-04-12T19:03:37.156Z,3.65
2024-04-12T19:06:07.430Z,3.97
2024-04-12T19:08:34.599Z,34.95
2024-04-12T19:11:01.851Z,18.25
2024-04-12T19:13:29.037Z,9.38
2024-04-12T19:15:56.166Z,6.60
2024-04-12T19:18:23.582Z,5.32
2024-04-12T19:20:50.817Z,6.43
2024-04-12T19:23:18.359Z,4.82
2024-04-12T19:25:55.025Z,2.90
2024-04-12T19:28:22.346Z,3.03
2024-04-12T19:30:49.512Z,2.85
2024-04-12T19:33:16.843Z,3.28
2024-04-12T19:35:56.460Z,2.70
2024-04-12T19:38:24.437Z,2.90
2024-04-12T19:40:59.129Z,2.45
2024-04-12T19:43:26.549Z,2.40
2024-04-12T19:45:54.994Z,2.33
2024-04-12T19:48:22.744Z,2.70
2024-04-12T19:50:49.994Z,2.42
2024-04-12T19:53:17.257Z,2.17
2024-04-12T19:55:54.106Z,2.60
2024-04-12T19:58:21.216Z,3.08
2024-04-12T20:00:48.511Z,2.58
2024-04-12T20:03:15.841Z,2.95
2024-04-12T20:05:53.741Z,2.72
2024-04-12T20:08:22.256Z,2.25
2024-04-12T20:10:59.950Z,3.05
2024-04-12T20:13:27.982Z,2.65
2024-04-12T20:15:59.848Z,2.65
2024-04-12T20:18:27.213Z,2.40
2024-04-12T20:21:02.798Z,2.75
2024-04-12T20:26:02.259Z,2.53
2024-04-12T20:28:29.987Z,2.60
2024-04-12T20:30:57.169Z,2.63
2024-04-12T20:33:24.478Z,2.45
2024-04-12T20:35:51.831Z,2.40
2024-04-12T20:38:18.984Z,2.70
2024-04-12T20:40:46.093Z,2.13
2024-04-12T20:43:13.203Z,2.63
2024-04-12T20:45:40.345Z,2.30
2024-04-12T20:48:07.666Z,2.50
2024-04-12T20:50:35.921Z,2.88
2024-04-12T20:53:03.023Z,2.53
2024-04-12T20:55:30.120Z,2.90
2024-04-12T20:57:57.252Z,2.92
2024-04-12T21:00:24.404Z,2.92
2024-04-12T21:02:51.535Z,2.58
2024-04-12T21:05:18.746Z,2.70
2024-04-12T21:07:45.940Z,3.05
2024-04-12T21:10:13.042Z,2.72
2024-04-12T21:12:40.286Z,2.90
2024-04-12T21:15:07.503Z,2.92
2024-04-12T21:17:34.760Z,2.90
2024-04-12T21:20:01.943Z,2.75
2024-04-12T21:22:29.079Z,3.10
2024-04-12T21:24:56.166Z,2.80
2024-04-12T21:27:23.303Z,2.72
2024-04-12T21:29:50.437Z,3.08
2024-04-12T21:32:17.560Z,3.00
2024-04-12T21:34:44.677Z,3.25
2024-04-12T21:37:11.791Z,2.83
2024-04-12T21:39:38.923Z,2.90
2024-04-12T21:42:06.321Z,2.80
2024-04-12T21:44:33.482Z,3.08
2024-04-12T21:47:00.644Z,2.97
2024-04-12T21:49:27.798Z,2.88
2024-04-12T21:51:54.966Z,2.83
2024-04-12T21:54:22.111Z,2.22
2024-04-12T21:56:49.328Z,2.78
2024-04-12T21:59:16.450Z,2.92
2024-04-12T22:01:43.562Z,3.22
2024-04-12T22:04:10.842Z,2.75
2024-04-12T22:06:38.133Z,3.03
2024-04-12T22:09:05.298Z,3.00
2024-04-12T22:11:32.600Z,3.33
2024-04-12T22:13:59.811Z,3.25
2024-04-12T22:16:27.010Z,3.40
2024-04-12T22:18:54.226Z,2.90
2024-04-12T22:21:21.422Z,2.88
2024-04-12T22:23:48.615Z,3.10
2024-04-12T22:26:17.832Z,2.65
2024-04-12T22:28:46.851Z,3.28
2024-04-12T22:31:18.997Z,2.78
2024-04-12T22:33:48.146Z,3.30
2024-04-12T22:36:15.714Z,2.58
2024-04-12T22:38:42.938Z,2.65
2024-04-12T22:41:10.066Z,2.83
2024-04-12T22:43:37.398Z,3.25
2024-04-12T22:46:07.604Z,3.22
2024-04-12T22:48:34.785Z,3.20
2024-04-12T22:51:02.376Z,3.38
2024-04-12T22:53:29.584Z,2.70
2024-04-12T22:55:56.716Z,2.92
2024-04-12T22:58:23.823Z,3.03
2024-04-12T23:00:51.017Z,3.00
2024-04-12T23:03:18.191Z,2.80
2024-04-12T23:05:45.665Z,2.55
2024-04-12T23:08:12.784Z,2.90
2024-04-12T23:10:39.883Z,3.25
2024-04-12T23:13:06.994Z,3.05
2024-04-12T23:15:34.261Z,3.35
2024-04-12T23:18:01.596Z,3.00
2024-04-12T23:20:28.803Z,3.22
2024-04-12T23:22:56.233Z,2.97
2024-04-12T23:25:23.361Z,2.83
2024-04-12T23:27:50.476Z,2.90
2024-04-12T23:30:17.686Z,2.75
2024-04-12T23:32:44.850Z,3.25
2024-04-12T23:35:12.000Z,3.38
2024-04-12T23:37:39.158Z,3.17
2024-04-12T23:40:06.848Z,3.05
2024-04-12T23:42:34.088Z,3.25
2024-04-12T23:45:01.386Z,3.53
2024-04-12T23:47:28.887Z,3.13
2024-04-12T23:49:56.072Z,3.22
2024-04-12T23:52:23.202Z,3.42
2024-04-12T23:54:50.297Z,3.45
2024-04-12T23:57:17.447Z,3.58
2024-04-12T23:59:48.417Z,3.42
